aviador You're here:

UDSG Decoded Metar

SHIRAK in ARMENIA
Report Time2018-06-19 08:00:00
UTC Time2018-06-19 08:18:37
Flight Rules vfr VFR
WindVRB at 01 kt
Visibility9999 m
Phenomena:N/A
Clouds:N/A
Expected CloudBase > 4,800 ft AGL from Temp-Dew spread
CeilingNone
Temp21°C (ISA +16)
Dew Point09°C (46% RH)
AAT20.4°C
QNH1015 hPa
Density Alt6,932 ft
Elevation5,000 ft
Report Wrong Elevation
Raw Report
METAR UDSG 190800Z VRB01KT 9999 NSC 21/09 Q1015 R02/CLRD70 NOSIG=

Extra information for UDSG:More info

Metar Taf Metar & Taf Last 4 Metars F.Rules Stats Wind Profile Meteogram Temp Stats Airport Information Weather charts Add Link Nearby VenuesMetar ALERT Operation Metar Decoded Social comments